createdAt,value
2018-04-17T00:01:16.352Z,55.20
2018-04-17T00:03:42.773Z,54.40
2018-04-17T00:06:09.172Z,55.10
2018-04-17T00:08:35.612Z,54.50
2018-04-17T00:11:01.980Z,54.50
2018-04-17T00:13:28.402Z,55.00
2018-04-17T00:15:54.761Z,55.40
2018-04-17T00:18:21.149Z,56.00
2018-04-17T00:20:47.524Z,56.10
2018-04-17T00:23:13.929Z,55.90
2018-04-17T00:25:40.299Z,55.90
2018-04-17T00:28:06.688Z,56.20
2018-04-17T00:30:33.065Z,56.50
2018-04-17T00:32:59.432Z,56.90
2018-04-17T00:35:25.823Z,57.20
2018-04-17T00:37:52.216Z,57.20
2018-04-17T00:40:18.589Z,56.90
2018-04-17T00:42:45.695Z,56.40
2018-04-17T00:45:12.109Z,56.40
2018-04-17T00:47:38.464Z,57.10
2018-04-17T00:50:04.896Z,56.70
2018-04-17T00:52:31.291Z,57.10
2018-04-17T00:54:57.723Z,57.20
2018-04-17T00:57:24.072Z,57.10
2018-04-17T00:59:50.475Z,57.10
2018-04-17T01:02:16.844Z,57.10
2018-04-17T01:04:43.328Z,57.00
2018-04-17T01:07:09.704Z,56.90
2018-04-17T01:09:36.079Z,56.90
2018-04-17T01:12:03.472Z,57.40
2018-04-17T01:14:29.877Z,57.90
2018-04-17T01:16:56.252Z,58.50
2018-04-17T01:19:22.644Z,58.40
2018-04-17T01:21:49.036Z,58.50
2018-04-17T01:24:16.177Z,58.50
2018-04-17T01:26:42.654Z,58.50
2018-04-17T01:29:09.048Z,59.00
2018-04-17T01:31:36.196Z,59.10
2018-04-17T01:34:03.366Z,59.50
2018-04-17T01:36:29.763Z,59.50
2018-04-17T01:38:56.125Z,58.90
2018-04-17T01:41:22.521Z,58.80
2018-04-17T01:43:48.911Z,59.10
2018-04-17T01:46:15.296Z,59.20
2018-04-17T01:48:42.426Z,59.30
2018-04-17T01:51:08.802Z,59.30
2018-04-17T01:53:35.236Z,60.10
2018-04-17T01:56:01.611Z,60.40
2018-04-17T01:58:27.984Z,60.70
2018-04-17T02:00:55.110Z,60.60
2018-04-17T02:03:21.477Z,60.60
2018-04-17T02:05:47.866Z,61.20
2018-04-17T02:08:14.256Z,60.50
2018-04-17T02:10:41.517Z,61.20
2018-04-17T02:13:07.875Z,60.70
2018-04-17T02:15:34.306Z,61.30
2018-04-17T02:18:00.644Z,61.20
2018-04-17T02:20:27.067Z,61.20
2018-04-17T02:22:53.417Z,62.00
2018-04-17T02:25:20.558Z,61.30
2018-04-17T02:27:46.923Z,61.40
2018-04-17T02:30:13.314Z,61.90
2018-04-17T02:32:39.665Z,61.10
2018-04-17T02:35:06.789Z,60.90
2018-04-17T02:37:33.170Z,60.90
2018-04-17T02:39:59.527Z,61.00
2018-04-17T02:42:25.967Z,61.10
2018-04-17T02:44:52.335Z,61.20
2018-04-17T02:47:19.491Z,61.00
2018-04-17T02:49:47.186Z,61.00
2018-04-17T02:52:13.573Z,61.10
2018-04-17T02:54:39.979Z,61.60
2018-04-17T02:57:06.347Z,62.30
2018-04-17T02:59:32.757Z,61.90
2018-04-17T03:01:59.213Z,62.00
2018-04-17T03:04:25.653Z,62.50
2018-04-17T03:06:52.080Z,62.00
2018-04-17T03:09:18.495Z,63.10
2018-04-17T03:11:45.742Z,63.60
2018-04-17T03:14:12.859Z,63.40
2018-04-17T03:16:39.234Z,63.40
2018-04-17T03:19:05.641Z,63.90
2018-04-17T03:21:32.738Z,62.70
2018-04-17T03:23:59.110Z,62.50
2018-04-17T03:26:26.293Z,63.10
2018-04-17T03:28:52.690Z,63.10
2018-04-17T03:31:19.053Z,63.40
2018-04-17T03:33:45.446Z,63.20
2018-04-17T03:36:11.818Z,64.40
2018-04-17T03:38:38.178Z,64.30
2018-04-17T03:41:04.595Z,65.70
2018-04-17T03:43:30.984Z,65.90
2018-04-17T03:45:58.121Z,65.70
2018-04-17T03:48:25.256Z,64.80
2018-04-17T03:50:51.661Z,64.80
2018-04-17T03:53:18.032Z,64.40
2018-04-17T03:55:45.130Z,64.40
2018-04-17T03:58:11.569Z,64.40
2018-04-17T04:00:37.980Z,65.10
2018-04-17T04:03:04.374Z,65.50
2018-04-17T04:05:31.544Z,65.10
2018-04-17T04:07:57.964Z,65.00
2018-04-17T04:10:24.403Z,65.60
2018-04-17T04:12:50.880Z,65.10
2018-04-17T04:15:17.216Z,65.70
2018-04-17T04:18:02.132Z,66.40
2018-04-17T04:20:47.050Z,66.70
2018-04-17T04:23:31.754Z,66.70
2018-04-17T04:26:21.091Z,66.40
2018-04-17T04:28:47.508Z,66.70
2018-04-17T04:31:13.856Z,66.60
2018-04-17T04:33:40.225Z,65.80
2018-04-17T04:36:06.614Z,66.60
2018-04-17T04:38:33.004Z,66.70
2018-04-17T04:40:59.469Z,67.50
2018-04-17T04:43:25.854Z,66.80
2018-04-17T04:45:52.239Z,66.50
2018-04-17T04:48:18.612Z,66.40
2018-04-17T04:50:44.985Z,65.70
2018-04-17T04:53:11.357Z,65.70
2018-04-17T04:55:37.740Z,65.30
2018-04-17T04:58:04.217Z,65.80
2018-04-17T05:00:30.619Z,65.90
2018-04-17T05:02:57.042Z,65.40
2018-04-17T05:05:23.445Z,65.10
2018-04-17T05:07:49.940Z,65.90
2018-04-17T05:10:17.091Z,67.30
2018-04-17T05:12:43.488Z,67.30
2018-04-17T05:15:09.884Z,67.90
2018-04-17T05:17:36.307Z,67.80
2018-04-17T05:20:02.754Z,68.10
2018-04-17T05:22:29.121Z,68.00
2018-04-17T05:24:55.525Z,67.30
2018-04-17T05:27:21.965Z,67.00
2018-04-17T05:29:48.436Z,67.00
2018-04-17T05:32:14.769Z,67.50
2018-04-17T05:34:41.972Z,67.70
2018-04-17T05:37:08.358Z,67.80
2018-04-17T05:39:35.598Z,66.80
2018-04-17T05:42:02.839Z,66.40
2018-04-17T05:44:29.247Z,66.40
2018-04-17T05:46:55.733Z,66.10
2018-04-17T05:49:23.016Z,65.80
2018-04-17T05:51:49.454Z,65.50
2018-04-17T05:54:15.840Z,65.50
2018-04-17T05:56:42.375Z,64.80
2018-04-17T05:59:08.790Z,64.80
2018-04-17T06:01:35.932Z,65.20
2018-04-17T06:04:02.415Z,65.20
2018-04-17T06:06:28.812Z,64.90
2018-04-17T06:08:55.225Z,65.70
2018-04-17T06:11:21.657Z,65.10
2018-04-17T06:13:48.048Z,65.10
2018-04-17T06:16:14.419Z,65.40
2018-04-17T06:18:41.616Z,63.70
2018-04-17T06:21:08.095Z,63.70
2018-04-17T06:23:36.159Z,62.80
2018-04-17T06:26:02.591Z,62.80
2018-04-17T06:28:29.028Z,63.10
2018-04-17T06:30:55.409Z,62.60
2018-04-17T06:33:21.784Z,63.10
2018-04-17T06:35:48.913Z,62.10
2018-04-17T06:38:15.348Z,62.00
2018-04-17T06:40:41.729Z,62.00
2018-04-17T06:43:08.131Z,61.90
2018-04-17T06:45:34.481Z,61.80
2018-04-17T06:48:00.882Z,61.60
2018-04-17T06:50:27.255Z,61.10
2018-04-17T06:52:53.622Z,61.30
2018-04-17T06:55:20.184Z,59.30
2018-04-17T06:57:46.612Z,61.60
2018-04-17T07:00:13.052Z,58.70
2018-04-17T07:02:40.165Z,57.40
2018-04-17T07:05:06.553Z,57.40
2018-04-17T07:07:33.003Z,57.60
2018-04-17T07:09:59.401Z,57.60
2018-04-17T07:12:25.932Z,56.90
2018-04-17T07:14:52.331Z,55.90
2018-04-17T07:17:18.718Z,56.70
2018-04-17T07:19:45.110Z,55.20
2018-04-17T07:22:11.514Z,55.50
2018-04-17T07:24:37.900Z,54.80
2018-04-17T07:27:04.335Z,54.30
2018-04-17T07:29:31.405Z,53.40
2018-04-17T07:31:58.515Z,52.90
2018-04-17T07:34:24.936Z,52.90
2018-04-17T07:36:52.156Z,53.60
2018-04-17T07:39:18.617Z,53.50
2018-04-17T07:41:45.067Z,54.30
2018-04-17T07:44:12.260Z,52.60
2018-04-17T07:46:38.714Z,52.50
2018-04-17T07:49:05.994Z,52.70
2018-04-17T07:51:33.147Z,54.90
2018-04-17T07:53:59.590Z,54.80
2018-04-17T07:56:26.033Z,55.60
2018-04-17T07:58:52.582Z,55.30
2018-04-17T08:01:18.993Z,56.00
2018-04-17T08:03:45.397Z,55.30
2018-04-17T08:06:11.860Z,53.50
2018-04-17T08:08:38.304Z,53.50
2018-04-17T08:11:04.730Z,53.50
2018-04-17T08:13:31.220Z,53.60
2018-04-17T08:15:57.586Z,52.40
2018-04-17T08:18:23.966Z,53.90
2018-04-17T08:20:50.389Z,52.70
2018-04-17T08:23:16.783Z,50.80
2018-04-17T08:25:43.196Z,50.70
2018-04-17T08:28:09.620Z,51.70
2018-04-17T08:30:36.774Z,50.70
2018-04-17T08:33:03.147Z,50.70
2018-04-17T08:35:29.547Z,50.80
2018-04-17T08:37:55.929Z,50.90
2018-04-17T08:40:22.605Z,51.10
2018-04-17T08:42:49.043Z,51.40
2018-04-17T08:45:15.527Z,50.80
2018-04-17T08:47:41.947Z,50.90
2018-04-17T08:50:08.430Z,50.30
2018-04-17T08:52:35.584Z,49.90
2018-04-17T08:55:02.727Z,48.60
2018-04-17T08:57:29.120Z,48.60
2018-04-17T08:59:55.519Z,49.00
2018-04-17T09:02:21.941Z,47.70
2018-04-17T09:04:48.372Z,47.90
2018-04-17T09:07:14.795Z,48.30
2018-04-17T09:09:41.220Z,48.60
2018-04-17T09:12:07.613Z,48.00
2018-04-17T09:14:34.059Z,48.10
2018-04-17T09:17:00.561Z,48.30
2018-04-17T09:19:27.052Z,47.90
2018-04-17T09:21:53.423Z,48.50
2018-04-17T09:24:19.840Z,47.70
2018-04-17T09:26:46.319Z,46.80
2018-04-17T09:29:12.824Z,47.00
2018-04-17T09:31:39.323Z,47.20
2018-04-17T09:34:05.797Z,47.70
2018-04-17T09:36:32.260Z,47.50
2018-04-17T09:38:58.660Z,46.50
2018-04-17T09:41:25.057Z,46.00
2018-04-17T09:43:51.464Z,45.50
2018-04-17T09:46:18.624Z,47.60
2018-04-17T09:48:45.080Z,47.60
2018-04-17T09:51:11.488Z,45.10
2018-04-17T09:53:37.864Z,45.90
2018-04-17T09:56:04.353Z,45.00
2018-04-17T09:58:30.753Z,44.50
2018-04-17T10:00:57.934Z,44.40
2018-04-17T10:03:24.341Z,44.30
2018-04-17T10:05:50.829Z,44.70
2018-04-17T10:08:17.270Z,44.20
2018-04-17T10:10:43.728Z,44.30
2018-04-17T10:13:10.886Z,44.60
2018-04-17T10:15:37.329Z,44.50
2018-04-17T10:18:04.487Z,45.00
2018-04-17T10:20:30.917Z,45.00
2018-04-17T10:22:57.306Z,43.90
2018-04-17T10:25:23.710Z,44.00
2018-04-17T10:27:50.260Z,43.90
2018-04-17T10:30:16.666Z,42.80
2018-04-17T10:32:43.097Z,43.90
2018-04-17T10:35:09.504Z,44.00
2018-04-17T10:37:35.908Z,43.70
2018-04-17T10:40:03.216Z,43.10
2018-04-17T10:42:29.608Z,43.10
2018-04-17T10:44:56.773Z,42.80
2018-04-17T10:47:23.174Z,42.90
2018-04-17T10:49:49.579Z,42.20
2018-04-17T10:52:15.980Z,43.10
2018-04-17T10:54:42.386Z,42.30
2018-04-17T10:57:09.502Z,42.00
2018-04-17T10:59:35.893Z,41.90
2018-04-17T11:02:02.309Z,39.90
2018-04-17T11:04:28.800Z,39.70
2018-04-17T11:06:55.940Z,40.00
2018-04-17T11:09:29.986Z,40.30
2018-04-17T11:11:56.346Z,40.30
2018-04-17T11:14:22.775Z,40.80
2018-04-17T11:16:49.315Z,41.50
2018-04-17T11:19:15.733Z,41.30
2018-04-17T11:21:42.133Z,40.50
2018-04-17T11:24:09.486Z,37.30
2018-04-17T11:26:36.640Z,37.80
2018-04-17T11:29:03.067Z,37.80
2018-04-17T11:31:29.488Z,38.10
2018-04-17T11:33:55.921Z,38.90
2018-04-17T11:36:23.147Z,38.70
2018-04-17T11:38:49.634Z,38.70
2018-04-17T11:41:16.213Z,39.00
2018-04-17T11:43:42.605Z,38.30
2018-04-17T11:46:09.063Z,38.00
2018-04-17T11:48:35.560Z,37.30
2018-04-17T11:51:01.958Z,36.40
2018-04-17T11:53:28.413Z,36.80
2018-04-17T11:55:54.921Z,34.10
2018-04-17T11:58:21.384Z,32.70
2018-04-17T12:00:47.862Z,32.80
2018-04-17T12:03:21.423Z,33.50
2018-04-17T12:05:47.868Z,32.90
2018-04-17T12:08:15.111Z,32.50
2018-04-17T12:10:42.324Z,32.90
2018-04-17T12:13:08.754Z,32.90
2018-04-17T12:15:35.201Z,32.00
2018-04-17T12:18:01.952Z,31.90
2018-04-17T12:20:28.409Z,33.80
2018-04-17T12:22:54.807Z,33.70
2018-04-17T12:25:21.349Z,33.00
2018-04-17T12:27:47.775Z,32.50
2018-04-17T12:30:14.212Z,32.80
2018-04-17T12:32:40.636Z,30.90
2018-04-17T12:35:07.147Z,30.30
2018-04-17T12:37:33.590Z,30.00
2018-04-17T12:40:00.741Z,28.10
2018-04-17T12:42:27.963Z,29.40
2018-04-17T12:44:54.423Z,29.40
2018-04-17T12:47:20.836Z,29.90
2018-04-17T12:49:47.287Z,31.30
2018-04-17T12:52:14.453Z,32.20
2018-04-17T12:54:40.876Z,32.30
2018-04-17T12:57:07.333Z,30.90
2018-04-17T12:59:33.735Z,30.80
2018-04-17T13:02:00.201Z,31.10
2018-04-17T13:04:26.689Z,31.10
2018-04-17T13:06:53.182Z,32.00
2018-04-17T13:09:19.611Z,32.00
2018-04-17T13:11:47.042Z,31.80
2018-04-17T13:14:13.526Z,31.00
2018-04-17T13:16:40.008Z,31.00
2018-04-17T13:19:07.130Z,30.20
2018-04-17T13:21:33.606Z,30.20
2018-04-17T13:24:00.083Z,30.20
2018-04-17T13:26:26.616Z,30.60
2018-04-17T13:28:53.073Z,31.60
2018-04-17T13:31:20.219Z,30.00
2018-04-17T13:33:47.391Z,30.20
2018-04-17T13:36:13.787Z,30.20
2018-04-17T13:38:40.968Z,30.40
2018-04-17T13:41:07.391Z,30.40
2018-04-17T13:43:33.873Z,30.00
2018-04-17T13:46:01.723Z,30.00
2018-04-17T13:48:28.265Z,30.00
2018-04-17T13:50:54.747Z,31.30
2018-04-17T13:53:21.160Z,31.20
2018-04-17T13:55:47.630Z,30.60
2018-04-17T13:58:14.028Z,31.10
2018-04-17T14:00:41.291Z,31.60
2018-04-17T14:03:08.469Z,31.20
2018-04-17T14:05:34.938Z,31.20
2018-04-17T14:08:01.362Z,31.70
2018-04-17T14:10:27.816Z,31.90
2018-04-17T14:12:54.246Z,29.70
2018-04-17T14:15:20.664Z,30.70
2018-04-17T14:17:47.106Z,29.70
2018-04-17T14:20:13.538Z,29.30
2018-04-17T14:22:39.963Z,29.40
2018-04-17T14:25:07.177Z,29.30
2018-04-17T14:27:33.623Z,29.30
2018-04-17T14:30:00.009Z,29.30
2018-04-17T14:32:26.445Z,28.60
2018-04-17T14:34:53.545Z,28.30
2018-04-17T14:37:20.041Z,28.10
2018-04-17T14:39:46.469Z,28.60
2018-04-17T14:42:14.457Z,29.40
2018-04-17T14:44:40.932Z,29.20
2018-04-17T14:47:08.076Z,29.60
2018-04-17T14:49:34.468Z,29.50
2018-04-17T14:52:00.968Z,29.40
2018-04-17T14:54:28.167Z,28.30
2018-04-17T14:56:54.605Z,28.30
2018-04-17T14:59:20.988Z,28.30
2018-04-17T15:04:43.242Z,27.50
2018-04-17T15:07:09.661Z,27.50
2018-04-17T15:09:36.059Z,27.20
2018-04-17T15:12:02.489Z,27.10
2018-04-17T15:14:28.877Z,25.60
2018-04-17T15:16:55.338Z,25.30
2018-04-17T15:19:22.529Z,24.60
2018-04-17T15:21:48.995Z,24.60
2018-04-17T15:24:15.377Z,23.50
2018-04-17T15:26:41.851Z,23.90
2018-04-17T15:29:08.259Z,23.20
2018-04-17T15:31:35.460Z,24.70
2018-04-17T15:34:01.902Z,24.70
2018-04-17T15:36:28.336Z,24.50
2018-04-17T15:38:54.785Z,25.00
2018-04-17T15:41:21.182Z,25.10
2018-04-17T15:43:47.659Z,26.20
2018-04-17T15:46:14.792Z,26.60
2018-04-17T15:48:41.995Z,27.00
2018-04-17T15:51:09.434Z,26.80
2018-04-17T15:53:36.643Z,28.00
2018-04-17T15:56:03.139Z,27.90
2018-04-17T15:58:29.540Z,27.30
2018-04-17T16:00:56.192Z,27.50
2018-04-17T16:03:22.623Z,28.60
2018-04-17T16:05:49.148Z,28.60
2018-04-17T16:08:16.277Z,28.50
2018-04-17T16:10:42.821Z,28.50
2018-04-17T16:13:09.957Z,28.40
2018-04-17T16:15:36.371Z,28.40
2018-04-17T16:18:02.858Z,28.50
2018-04-17T16:20:29.280Z,28.20
2018-04-17T16:22:55.655Z,28.40
2018-04-17T16:25:22.188Z,28.30
2018-04-17T16:27:48.633Z,28.30
2018-04-17T16:30:15.107Z,28.50
2018-04-17T16:32:41.595Z,28.30
2018-04-17T16:35:08.079Z,28.60
2018-04-17T16:37:34.521Z,29.40
2018-04-17T16:40:00.980Z,29.50
2018-04-17T16:42:27.507Z,28.90
2018-04-17T16:44:53.965Z,29.10
2018-04-17T16:47:20.383Z,29.20
2018-04-17T16:49:46.787Z,29.30
2018-04-17T16:52:13.916Z,29.20
2018-04-17T16:54:40.561Z,29.20
2018-04-17T16:57:07.344Z,29.50
2018-04-17T16:59:33.783Z,30.00
2018-04-17T17:02:00.224Z,29.70
2018-04-17T17:04:26.633Z,30.40
2018-04-17T17:06:53.023Z,29.80
2018-04-17T17:09:19.430Z,29.50
2018-04-17T17:11:46.641Z,30.10
2018-04-17T17:14:13.074Z,30.10
2018-04-17T17:16:44.540Z,30.80
2018-04-17T17:19:10.967Z,30.40
2018-04-17T17:21:37.385Z,30.80
2018-04-17T17:24:03.804Z,30.70
2018-04-17T17:26:30.216Z,30.90
2018-04-17T17:28:56.702Z,31.00
2018-04-17T17:31:23.120Z,31.30
2018-04-17T17:33:49.651Z,31.20
2018-04-17T17:36:16.120Z,31.30
2018-04-17T17:38:43.367Z,31.60
2018-04-17T17:41:10.551Z,31.60
2018-04-17T17:43:37.081Z,31.60
2018-04-17T17:46:04.328Z,32.50
2018-04-17T17:48:30.820Z,31.70
2018-04-17T17:50:57.356Z,31.70
2018-04-17T17:53:23.727Z,31.90
2018-04-17T17:55:50.349Z,32.00
2018-04-17T17:58:16.840Z,32.00
2018-04-17T18:00:43.306Z,32.50
2018-04-17T18:03:09.729Z,33.10
2018-04-17T18:05:36.162Z,32.80
2018-04-17T18:08:02.596Z,33.00
2018-04-17T18:10:30.005Z,33.40
2018-04-17T18:12:56.458Z,33.40
2018-04-17T18:15:23.037Z,33.60
2018-04-17T18:17:50.272Z,34.10
2018-04-17T18:20:16.718Z,34.10
2018-04-17T18:22:43.173Z,34.40
2018-04-17T18:25:09.759Z,34.50
2018-04-17T18:27:36.272Z,34.70
2018-04-17T18:30:02.787Z,35.30
2018-04-17T18:32:29.246Z,35.40
2018-04-17T18:34:56.377Z,35.70
2018-04-17T18:37:22.828Z,35.70
2018-04-17T18:39:49.331Z,36.30
2018-04-17T18:42:15.726Z,36.60
2018-04-17T18:44:42.239Z,37.00
2018-04-17T18:47:09.507Z,38.50
2018-04-17T18:49:36.094Z,38.50
2018-04-17T18:52:08.045Z,38.90
2018-04-17T18:54:34.893Z,39.90
2018-04-17T18:57:01.320Z,40.40
2018-04-17T18:59:27.831Z,40.50
2018-04-17T19:01:54.404Z,41.80
2018-04-17T19:04:20.921Z,42.30
2018-04-17T19:06:49.350Z,42.70
2018-04-17T19:09:18.952Z,42.50
2018-04-17T19:11:45.446Z,42.50
2018-04-17T19:14:11.922Z,42.70
2018-04-17T19:16:38.389Z,43.20
2018-04-17T19:19:05.227Z,43.10
2018-04-17T19:21:31.747Z,43.80
2018-04-17T19:23:58.275Z,43.50
2018-04-17T19:26:24.746Z,43.40
2018-04-17T19:28:51.196Z,44.10
2018-04-17T19:31:18.674Z,44.50
2018-04-17T19:33:45.313Z,44.90
2018-04-17T19:36:12.648Z,45.20
2018-04-17T19:38:39.986Z,45.90
2018-04-17T19:41:06.420Z,45.70
2018-04-17T19:43:32.869Z,45.50
2018-04-17T19:46:00.153Z,45.70
2018-04-17T19:48:26.643Z,45.60
2018-04-17T19:50:53.146Z,46.20
2018-04-17T19:53:19.596Z,47.70
2018-04-17T19:55:46.101Z,46.90
2018-04-17T19:58:13.451Z,47.20
2018-04-17T20:00:39.925Z,47.10
2018-04-17T20:03:06.461Z,47.50
2018-04-17T20:05:32.951Z,47.60
2018-04-17T20:07:59.586Z,47.40
2018-04-17T20:10:26.095Z,47.70
2018-04-17T20:12:53.312Z,48.20
2018-04-17T20:15:19.757Z,48.20
2018-04-17T20:17:46.215Z,48.20
2018-04-17T20:20:12.793Z,48.30
2018-04-17T20:22:39.357Z,49.00
2018-04-17T20:25:05.898Z,49.30
2018-04-17T20:27:33.085Z,50.00
2018-04-17T20:29:59.585Z,49.90
2018-04-17T20:32:26.082Z,49.90
2018-04-17T20:34:52.516Z,49.80
2018-04-17T20:37:19.030Z,50.20
2018-04-17T20:39:45.457Z,50.70
2018-04-17T20:42:12.711Z,50.60
2018-04-17T20:44:39.226Z,50.50
2018-04-17T20:47:05.657Z,51.10
2018-04-17T20:49:32.125Z,50.40
2018-04-17T20:51:58.637Z,50.40
2018-04-17T20:54:25.110Z,51.10
2018-04-17T20:56:52.284Z,51.00
2018-04-17T20:59:18.760Z,51.00
2018-04-17T21:01:45.238Z,50.90
2018-04-17T21:04:12.416Z,51.60
2018-04-17T21:06:39.610Z,51.90
2018-04-17T21:09:06.087Z,51.90
2018-04-17T21:11:32.564Z,51.60
2018-04-17T21:13:59.150Z,51.50
2018-04-17T21:16:25.686Z,51.70
2018-04-17T21:18:52.193Z,51.50
2018-04-17T21:21:18.683Z,51.90
2018-04-17T21:23:45.253Z,52.30
2018-04-17T21:26:11.688Z,52.40
2018-04-17T21:28:38.127Z,52.40
2018-04-17T21:31:05.273Z,52.60
2018-04-17T21:33:31.744Z,52.60
2018-04-17T21:35:58.245Z,52.70
2018-04-17T21:38:24.677Z,53.60
2018-04-17T21:40:51.810Z,53.60
2018-04-17T21:43:18.251Z,52.90
2018-04-17T21:45:44.741Z,53.20
2018-04-17T21:48:11.205Z,53.20
2018-04-17T21:50:37.640Z,53.20
2018-04-17T21:53:04.048Z,53.30
2018-04-17T21:55:30.549Z,53.10
2018-04-17T21:57:56.951Z,53.30
2018-04-17T22:00:24.140Z,53.80
2018-04-17T22:02:51.298Z,53.20
2018-04-17T22:05:17.778Z,53.20
2018-04-17T22:07:44.949Z,53.80
2018-04-17T22:10:11.402Z,53.50
2018-04-17T22:12:37.813Z,53.30
2018-04-17T22:15:04.217Z,53.30
2018-04-17T22:17:31.412Z,53.30
2018-04-17T22:19:57.830Z,53.30
2018-04-17T22:22:24.284Z,53.20
2018-04-17T22:24:50.684Z,53.20
2018-04-17T22:27:17.140Z,53.60
2018-04-17T22:29:44.321Z,54.00
2018-04-17T22:32:10.737Z,53.90
2018-04-17T22:34:37.199Z,54.80
2018-04-17T22:37:03.716Z,54.20
2018-04-17T22:39:30.189Z,54.70
2018-04-17T22:41:57.372Z,55.60
2018-04-17T22:44:23.839Z,55.50
2018-04-17T22:46:50.235Z,56.10
2018-04-17T22:49:16.667Z,55.70
2018-04-17T22:51:43.081Z,55.60
2018-04-17T22:54:09.516Z,55.30
2018-04-17T22:56:35.993Z,55.40
2018-04-17T22:59:02.439Z,54.90
2018-04-17T23:01:28.857Z,54.80
2018-04-17T23:03:55.229Z,55.00
2018-04-17T23:06:21.669Z,55.60
2018-04-17T23:08:48.077Z,56.40
2018-04-17T23:11:15.247Z,56.80
2018-04-17T23:13:41.676Z,56.80
2018-04-17T23:16:08.816Z,57.00
2018-04-17T23:18:35.940Z,57.00
2018-04-17T23:21:02.329Z,57.00
2018-04-17T23:23:28.750Z,57.30
2018-04-17T23:25:55.173Z,57.70
2018-04-17T23:28:21.550Z,58.50
2018-04-17T23:30:47.992Z,57.80
2018-04-17T23:33:14.388Z,57.90
2018-04-17T23:35:40.789Z,57.80
2018-04-17T23:38:07.213Z,58.00
2018-04-17T23:40:34.387Z,58.00
2018-04-17T23:43:00.764Z,58.00
2018-04-17T23:45:27.235Z,57.80
2018-04-17T23:47:53.665Z,57.80
2018-04-17T23:50:20.812Z,57.90
2018-04-17T23:52:47.924Z,57.90
2018-04-17T23:55:14.333Z,57.90
2018-04-17T23:57:42.445Z,58.20
